sensor_id;sensor_type;location;lat;lon;timestamp;temperature;humidity
32147;DHT22;32190;49.112;8.598;2023-02-20T00:02:57;13.50;59.10
32147;DHT22;32190;49.112;8.598;2023-02-20T00:08:47;13.40;59.00
32147;DHT22;32190;49.112;8.598;2023-02-20T00:14:38;13.40;59.00
32147;DHT22;32190;49.112;8.598;2023-02-20T00:20:28;13.40;59.00
32147;DHT22;32190;49.112;8.598;2023-02-20T00:26:21;13.40;58.90
32147;DHT22;32190;49.112;8.598;2023-02-20T00:32:12;13.30;58.90
32147;DHT22;32190;49.112;8.598;2023-02-20T00:38:03;13.30;59.00
32147;DHT22;32190;49.112;8.598;2023-02-20T00:43:53;13.30;58.90
32147;DHT22;32190;49.112;8.598;2023-02-20T00:49:44;13.20;58.90
32147;DHT22;32190;49.112;8.598;2023-02-20T00:55:34;13.20;59.00
32147;DHT22;32190;49.112;8.598;2023-02-20T01:01:25;13.10;58.90
32147;DHT22;32190;49.112;8.598;2023-02-20T01:07:16;13.00;58.90
32147;DHT22;32190;49.112;8.598;2023-02-20T01:13:07;13.00;59.00
32147;DHT22;32190;49.112;8.598;2023-02-20T01:18:57;12.90;59.00
32147;DHT22;32190;49.112;8.598;2023-02-20T01:24:48;12.90;59.00
32147;DHT22;32190;49.112;8.598;2023-02-20T01:30:39;12.80;59.00
32147;DHT22;32190;49.112;8.598;2023-02-20T01:36:30;12.80;59.20
32147;DHT22;32190;49.112;8.598;2023-02-20T01:42:23;12.70;59.10
32147;DHT22;32190;49.112;8.598;2023-02-20T01:48:22;12.70;59.10
32147;DHT22;32190;49.112;8.598;2023-02-20T01:54:16;12.60;59.10
32147;DHT22;32190;49.112;8.598;2023-02-20T02:00:14;12.60;59.10
32147;DHT22;32190;49.112;8.598;2023-02-20T02:06:06;12.60;59.10
32147;DHT22;32190;49.112;8.598;2023-02-20T02:11:58;12.50;59.00
32147;DHT22;32190;49.112;8.598;2023-02-20T02:49:28;12.20;59.30
32147;DHT22;32190;49.112;8.598;2023-02-20T02:55:26;12.20;59.30
32147;DHT22;32190;49.112;8.598;2023-02-20T03:01:18;12.20;59.30
32147;DHT22;32190;49.112;8.598;2023-02-20T03:07:13;12.20;59.30
32147;DHT22;32190;49.112;8.598;2023-02-20T03:13:09;12.20;59.40
32147;DHT22;32190;49.112;8.598;2023-02-20T03:19:04;12.10;59.30
32147;DHT22;32190;49.112;8.598;2023-02-20T03:25:03;12.10;59.40
32147;DHT22;32190;49.112;8.598;2023-02-20T03:30:59;12.10;59.40
32147;DHT22;32190;49.112;8.598;2023-02-20T03:36:58;12.00;59.40
32147;DHT22;32190;49.112;8.598;2023-02-20T03:43:12;12.00;59.40
32147;DHT22;32190;49.112;8.598;2023-02-20T03:49:18;12.00;59.90
32147;DHT22;32190;49.112;8.598;2023-02-20T03:55:09;11.90;59.30
32147;DHT22;32190;49.112;8.598;2023-02-20T04:01:03;11.90;59.20
32147;DHT22;32190;49.112;8.598;2023-02-20T04:06:55;11.90;59.90
32147;DHT22;32190;49.112;8.598;2023-02-20T04:12:47;11.80;59.30
32147;DHT22;32190;49.112;8.598;2023-02-20T04:18:38;11.80;59.40
32147;DHT22;32190;49.112;8.598;2023-02-20T04:24:37;11.80;59.40
32147;DHT22;32190;49.112;8.598;2023-02-20T04:30:30;11.80;59.50
32147;DHT22;32190;49.112;8.598;2023-02-20T04:36:21;11.80;59.50
32147;DHT22;32190;49.112;8.598;2023-02-20T04:42:11;11.80;59.40
32147;DHT22;32190;49.112;8.598;2023-02-20T04:48:02;11.70;59.40
32147;DHT22;32190;49.112;8.598;2023-02-20T04:53:53;11.70;59.40
32147;DHT22;32190;49.112;8.598;2023-02-20T04:59:44;11.70;59.30
32147;DHT22;32190;49.112;8.598;2023-02-20T05:05:34;11.70;59.30
32147;DHT22;32190;49.112;8.598;2023-02-20T05:11:25;11.60;59.40
32147;DHT22;32190;49.112;8.598;2023-02-20T05:17:15;11.60;59.40
32147;DHT22;32190;49.112;8.598;2023-02-20T05:23:06;11.50;59.40
32147;DHT22;32190;49.112;8.598;2023-02-20T05:28:57;11.50;59.40
32147;DHT22;32190;49.112;8.598;2023-02-20T05:34:48;11.50;59.40
32147;DHT22;32190;49.112;8.598;2023-02-20T05:40:38;11.50;59.40
32147;DHT22;32190;49.112;8.598;2023-02-20T05:46:29;11.50;59.40
32147;DHT22;32190;49.112;8.598;2023-02-20T05:52:20;11.40;59.30
32147;DHT22;32190;49.112;8.598;2023-02-20T05:58:10;11.40;59.30
32147;DHT22;32190;49.112;8.598;2023-02-20T06:04:01;11.40;59.40
32147;DHT22;32190;49.112;8.598;2023-02-20T06:09:51;11.40;59.40
32147;DHT22;32190;49.112;8.598;2023-02-20T06:15:42;11.40;59.40
32147;DHT22;32190;49.112;8.598;2023-02-20T06:21:33;11.30;59.30
32147;DHT22;32190;49.112;8.598;2023-02-20T06:27:25;11.30;59.30
32147;DHT22;32190;49.112;8.598;2023-02-20T06:33:15;11.20;59.40
32147;DHT22;32190;49.112;8.598;2023-02-20T06:39:08;11.20;59.50
32147;DHT22;32190;49.112;8.598;2023-02-20T06:44:59;11.20;59.60
32147;DHT22;32190;49.112;8.598;2023-02-20T06:50:49;11.20;59.60
32147;DHT22;32190;49.112;8.598;2023-02-20T06:56:44;11.20;59.70
32147;DHT22;32190;49.112;8.598;2023-02-20T07:02:35;11.10;59.70
32147;DHT22;32190;49.112;8.598;2023-02-20T07:08:26;11.10;59.70
32147;DHT22;32190;49.112;8.598;2023-02-20T07:14:16;11.10;59.60
32147;DHT22;32190;49.112;8.598;2023-02-20T07:20:07;11.10;59.70
32147;DHT22;32190;49.112;8.598;2023-02-20T07:25:59;11.20;60.40
32147;DHT22;32190;49.112;8.598;2023-02-20T07:31:50;11.10;59.70
32147;DHT22;32190;49.112;8.598;2023-02-20T07:37:40;11.20;59.70
32147;DHT22;32190;49.112;8.598;2023-02-20T07:43:31;11.20;59.80
32147;DHT22;32190;49.112;8.598;2023-02-20T07:49:21;11.20;59.80
32147;DHT22;32190;49.112;8.598;2023-02-20T07:55:14;11.20;59.80
32147;DHT22;32190;49.112;8.598;2023-02-20T08:01:05;11.10;59.70
32147;DHT22;32190;49.112;8.598;2023-02-20T08:06:55;11.20;59.70
32147;DHT22;32190;49.112;8.598;2023-02-20T08:12:47;11.20;59.70
32147;DHT22;32190;49.112;8.598;2023-02-20T08:18:37;11.20;59.70
32147;DHT22;32190;49.112;8.598;2023-02-20T08:24:28;11.20;59.70
32147;DHT22;32190;49.112;8.598;2023-02-20T08:30:27;11.30;59.80
32147;DHT22;32190;49.112;8.598;2023-02-20T08:36:17;11.30;59.80
32147;DHT22;32190;49.112;8.598;2023-02-20T08:42:08;11.30;59.80
32147;DHT22;32190;49.112;8.598;2023-02-20T08:47:58;11.30;59.90
32147;DHT22;32190;49.112;8.598;2023-02-20T08:53:51;11.40;60.00
32147;DHT22;32190;49.112;8.598;2023-02-20T08:59:41;11.50;60.10
32147;DHT22;32190;49.112;8.598;2023-02-20T09:05:33;11.50;60.10
32147;DHT22;32190;49.112;8.598;2023-02-20T09:11:24;11.70;60.20
32147;DHT22;32190;49.112;8.598;2023-02-20T09:17:15;11.80;60.10
32147;DHT22;32190;49.112;8.598;2023-02-20T09:23:06;11.90;59.90
32147;DHT22;32190;49.112;8.598;2023-02-20T09:28:57;12.00;59.80
32147;DHT22;32190;49.112;8.598;2023-02-20T09:34:47;12.10;59.70
32147;DHT22;32190;49.112;8.598;2023-02-20T09:40:38;12.20;59.60
32147;DHT22;32190;49.112;8.598;2023-02-20T09:46:29;12.20;59.50
32147;DHT22;32190;49.112;8.598;2023-02-20T09:52:19;12.30;59.40
32147;DHT22;32190;49.112;8.598;2023-02-20T10:04:37;12.50;59.30
32147;DHT22;32190;49.112;8.598;2023-02-20T10:10:32;12.60;59.10
32147;DHT22;32190;49.112;8.598;2023-02-20T10:16:37;12.60;58.80
32147;DHT22;32190;49.112;8.598;2023-02-20T10:22:45;12.80;58.90
32147;DHT22;32190;49.112;8.598;2023-02-20T10:28:38;12.90;58.70
32147;DHT22;32190;49.112;8.598;2023-02-20T10:34:36;13.00;58.50
32147;DHT22;32190;49.112;8.598;2023-02-20T10:40:32;13.10;58.30
32147;DHT22;32190;49.112;8.598;2023-02-20T10:46:39;13.30;58.10
32147;DHT22;32190;49.112;8.598;2023-02-20T10:52:38;13.30;57.60
32147;DHT22;32190;49.112;8.598;2023-02-20T10:59:27;13.40;57.50
32147;DHT22;32190;49.112;8.598;2023-02-20T11:05:10;13.50;57.50
32147;DHT22;32190;49.112;8.598;2023-02-20T11:11:27;13.50;57.20
32147;DHT22;32190;49.112;8.598;2023-02-20T11:17:20;13.60;57.30
32147;DHT22;32190;49.112;8.598;2023-02-20T11:23:33;13.70;57.50
32147;DHT22;32190;49.112;8.598;2023-02-20T11:29:28;13.80;57.30
32147;DHT22;32190;49.112;8.598;2023-02-20T11:35:25;13.80;57.20
32147;DHT22;32190;49.112;8.598;2023-02-20T11:41:24;13.90;57.10
32147;DHT22;32190;49.112;8.598;2023-02-20T11:47:22;14.00;56.70
32147;DHT22;32190;49.112;8.598;2023-02-20T11:53:25;14.20;57.10
32147;DHT22;32190;49.112;8.598;2023-02-20T11:59:30;14.30;56.90
32147;DHT22;32190;49.112;8.598;2023-02-20T12:05:37;14.30;56.60
32147;DHT22;32190;49.112;8.598;2023-02-20T12:11:30;14.40;56.50
32147;DHT22;32190;49.112;8.598;2023-02-20T12:17:38;14.50;56.70
32147;DHT22;32190;49.112;8.598;2023-02-20T12:23:45;14.60;56.20
32147;DHT22;32190;49.112;8.598;2023-02-20T12:42:51;14.90;55.80
32147;DHT22;32190;49.112;8.598;2023-02-20T12:55:06;15.10;55.70
32147;DHT22;32190;49.112;8.598;2023-02-20T13:01:06;15.10;55.70
32147;DHT22;32190;49.112;8.598;2023-02-20T13:07:03;15.20;55.50
32147;DHT22;32190;49.112;8.598;2023-02-20T13:12:55;15.30;55.30
32147;DHT22;32190;49.112;8.598;2023-02-20T13:18:50;15.40;55.60
32147;DHT22;32190;49.112;8.598;2023-02-20T13:24:43;15.50;55.30
32147;DHT22;32190;49.112;8.598;2023-02-20T13:30:34;15.60;55.30
32147;DHT22;32190;49.112;8.598;2023-02-20T13:54:20;15.90;54.80
32147;DHT22;32190;49.112;8.598;2023-02-20T14:06:23;16.00;54.30
32147;DHT22;32190;49.112;8.598;2023-02-20T14:12:14;16.10;54.50
32147;DHT22;32190;49.112;8.598;2023-02-20T14:18:20;16.20;54.40
32147;DHT22;32190;49.112;8.598;2023-02-20T14:24:26;16.30;54.30
32147;DHT22;32190;49.112;8.598;2023-02-20T14:30:20;16.40;52.80
32147;DHT22;32190;49.112;8.598;2023-02-20T14:42:22;16.50;51.50
32147;DHT22;32190;49.112;8.598;2023-02-20T14:48:25;16.60;51.60
32147;DHT22;32190;49.112;8.598;2023-02-20T14:54:20;16.60;51.00
32147;DHT22;32190;49.112;8.598;2023-02-20T15:00:24;16.70;51.40
32147;DHT22;32190;49.112;8.598;2023-02-20T15:06:15;16.70;50.80
32147;DHT22;32190;49.112;8.598;2023-02-20T15:12:07;16.80;51.00
32147;DHT22;32190;49.112;8.598;2023-02-20T15:18:10;16.80;51.10
32147;DHT22;32190;49.112;8.598;2023-02-20T15:24:26;16.80;51.20
32147;DHT22;32190;49.112;8.598;2023-02-20T15:30:19;16.80;50.40
32147;DHT22;32190;49.112;8.598;2023-02-20T15:36:14;16.80;50.70
32147;DHT22;32190;49.112;8.598;2023-02-20T15:42:10;16.80;49.90
32147;DHT22;32190;49.112;8.598;2023-02-20T15:48:01;16.80;50.40
32147;DHT22;32190;49.112;8.598;2023-02-20T15:53:55;16.70;50.30
32147;DHT22;32190;49.112;8.598;2023-02-20T15:59:49;16.70;50.20
32147;DHT22;32190;49.112;8.598;2023-02-20T16:05:40;16.60;50.50
32147;DHT22;32190;49.112;8.598;2023-02-20T16:11:42;16.50;50.30
32147;DHT22;32190;49.112;8.598;2023-02-20T16:17:34;16.50;50.70
32147;DHT22;32190;49.112;8.598;2023-02-20T16:23:25;16.40;50.30
32147;DHT22;32190;49.112;8.598;2023-02-20T16:29:19;16.40;50.80
32147;DHT22;32190;49.112;8.598;2023-02-20T16:35:13;16.30;50.90
32147;DHT22;32190;49.112;8.598;2023-02-20T16:41:04;16.20;50.40
32147;DHT22;32190;49.112;8.598;2023-02-20T16:46:56;16.20;50.70
32147;DHT22;32190;49.112;8.598;2023-02-20T16:52:46;16.10;50.70
32147;DHT22;32190;49.112;8.598;2023-02-20T16:58:38;16.10;50.60
32147;DHT22;32190;49.112;8.598;2023-02-20T17:04:29;16.00;50.40
32147;DHT22;32190;49.112;8.598;2023-02-20T17:10:20;15.90;50.60
32147;DHT22;32190;49.112;8.598;2023-02-20T17:16:10;15.80;50.90
32147;DHT22;32190;49.112;8.598;2023-02-20T17:22:01;15.80;50.70
32147;DHT22;32190;49.112;8.598;2023-02-20T17:27:51;15.70;51.10
32147;DHT22;32190;49.112;8.598;2023-02-20T17:33:42;15.70;50.90
32147;DHT22;32190;49.112;8.598;2023-02-20T17:39:33;15.60;50.80
32147;DHT22;32190;49.112;8.598;2023-02-20T17:45:24;15.60;50.90
32147;DHT22;32190;49.112;8.598;2023-02-20T17:51:16;15.50;50.90
32147;DHT22;32190;49.112;8.598;2023-02-20T17:57:07;15.50;50.90
32147;DHT22;32190;49.112;8.598;2023-02-20T18:02:58;15.50;51.20
32147;DHT22;32190;49.112;8.598;2023-02-20T18:08:49;15.40;51.10
32147;DHT22;32190;49.112;8.598;2023-02-20T18:14:40;15.40;51.40
32147;DHT22;32190;49.112;8.598;2023-02-20T18:20:30;15.30;51.50
32147;DHT22;32190;49.112;8.598;2023-02-20T18:26:22;15.30;51.30
32147;DHT22;32190;49.112;8.598;2023-02-20T18:32:12;15.30;51.40
32147;DHT22;32190;49.112;8.598;2023-02-20T18:38:03;15.20;51.50
32147;DHT22;32190;49.112;8.598;2023-02-20T18:43:54;15.10;51.60
32147;DHT22;32190;49.112;8.598;2023-02-20T18:49:48;15.10;51.80
32147;DHT22;32190;49.112;8.598;2023-02-20T18:55:39;15.00;51.90
32147;DHT22;32190;49.112;8.598;2023-02-20T19:01:30;15.00;51.90
32147;DHT22;32190;49.112;8.598;2023-02-20T19:07:22;15.00;52.00
32147;DHT22;32190;49.112;8.598;2023-02-20T19:13:13;14.90;52.10
32147;DHT22;32190;49.112;8.598;2023-02-20T19:19:04;14.80;52.00
32147;DHT22;32190;49.112;8.598;2023-02-20T19:24:56;14.80;52.20
32147;DHT22;32190;49.112;8.598;2023-02-20T19:30:47;14.80;52.20
32147;DHT22;32190;49.112;8.598;2023-02-20T19:36:38;14.70;52.20
32147;DHT22;32190;49.112;8.598;2023-02-20T19:42:30;14.70;52.30
32147;DHT22;32190;49.112;8.598;2023-02-20T19:48:21;14.60;52.40
32147;DHT22;32190;49.112;8.598;2023-02-20T19:54:11;14.60;52.60
32147;DHT22;32190;49.112;8.598;2023-02-20T20:00:02;14.60;52.50
32147;DHT22;32190;49.112;8.598;2023-02-20T20:05:53;14.50;52.70
32147;DHT22;32190;49.112;8.598;2023-02-20T20:11:44;14.50;52.80
32147;DHT22;32190;49.112;8.598;2023-02-20T20:17:34;14.40;52.80
32147;DHT22;32190;49.112;8.598;2023-02-20T20:23:25;14.40;52.80
32147;DHT22;32190;49.112;8.598;2023-02-20T20:29:16;14.40;52.80
32147;DHT22;32190;49.112;8.598;2023-02-20T20:35:07;14.40;52.90
32147;DHT22;32190;49.112;8.598;2023-02-20T20:40:57;14.30;52.80
32147;DHT22;32190;49.112;8.598;2023-02-20T20:46:48;14.30;52.80
32147;DHT22;32190;49.112;8.598;2023-02-20T20:52:38;14.30;52.80
32147;DHT22;32190;49.112;8.598;2023-02-20T20:58:29;14.30;53.00
32147;DHT22;32190;49.112;8.598;2023-02-20T21:04:20;14.30;52.80
32147;DHT22;32190;49.112;8.598;2023-02-20T21:10:11;14.20;52.90
32147;DHT22;32190;49.112;8.598;2023-02-20T21:16:01;14.20;52.90
32147;DHT22;32190;49.112;8.598;2023-02-20T21:21:53;14.10;52.90
32147;DHT22;32190;49.112;8.598;2023-02-20T21:27:44;14.10;53.00
32147;DHT22;32190;49.112;8.598;2023-02-20T21:33:35;14.10;53.00
32147;DHT22;32190;49.112;8.598;2023-02-20T21:39:25;14.10;53.10
32147;DHT22;32190;49.112;8.598;2023-02-20T21:45:18;14.10;53.00
32147;DHT22;32190;49.112;8.598;2023-02-20T21:51:08;14.10;53.10
32147;DHT22;32190;49.112;8.598;2023-02-20T21:56:59;14.00;53.10
32147;DHT22;32190;49.112;8.598;2023-02-20T22:02:50;13.90;53.20
32147;DHT22;32190;49.112;8.598;2023-02-20T22:08:40;13.90;53.20
32147;DHT22;32190;49.112;8.598;2023-02-20T22:14:50;13.90;53.20
32147;DHT22;32190;49.112;8.598;2023-02-20T22:20:59;13.80;53.30
32147;DHT22;32190;49.112;8.598;2023-02-20T22:27:08;13.80;53.40
32147;DHT22;32190;49.112;8.598;2023-02-20T22:33:17;13.80;53.20
32147;DHT22;32190;49.112;8.598;2023-02-20T22:39:27;13.70;53.20
32147;DHT22;32190;49.112;8.598;2023-02-20T22:45:36;13.70;53.40
32147;DHT22;32190;49.112;8.598;2023-02-20T22:51:46;13.60;53.40
32147;DHT22;32190;49.112;8.598;2023-02-20T22:57:56;13.60;53.50
32147;DHT22;32190;49.112;8.598;2023-02-20T23:04:05;13.60;53.50
32147;DHT22;32190;49.112;8.598;2023-02-20T23:10:15;13.50;53.40
32147;DHT22;32190;49.112;8.598;2023-02-20T23:16:24;13.50;53.50
32147;DHT22;32190;49.112;8.598;2023-02-20T23:22:33;13.50;53.50
32147;DHT22;32190;49.112;8.598;2023-02-20T23:28:43;13.40;53.60
32147;DHT22;32190;49.112;8.598;2023-02-20T23:34:52;13.40;53.60
32147;DHT22;32190;49.112;8.598;2023-02-20T23:41:02;13.40;53.60
32147;DHT22;32190;49.112;8.598;2023-02-20T23:47:12;13.30;53.70
32147;DHT22;32190;49.112;8.598;2023-02-20T23:53:21;13.30;53.70
32147;DHT22;32190;49.112;8.598;2023-02-20T23:59:30;13.30;53.70
